sensor_id;sensor_type;location;lat;lon;timestamp;P1;durP1;ratioP1;P2;durP2;ratioP2
15454;SDS011;21057;51.024;7.540;2022-12-18T00:01:53;22.60;;;21.20;;
15454;SDS011;21057;51.024;7.540;2022-12-18T00:04:24;24.10;;;22.70;;
15454;SDS011;21057;51.024;7.540;2022-12-18T00:06:52;24.20;;;22.83;;
15454;SDS011;21057;51.024;7.540;2022-12-18T00:09:19;23.17;;;21.77;;
15454;SDS011;21057;51.024;7.540;2022-12-18T00:11:46;23.83;;;22.53;;
15454;SDS011;21057;51.024;7.540;2022-12-18T00:14:13;22.07;;;20.87;;
15454;SDS011;21057;51.024;7.540;2022-12-18T00:16:42;24.20;;;22.70;;
15454;SDS011;21057;51.024;7.540;2022-12-18T00:19:10;22.93;;;21.70;;
15454;SDS011;21057;51.024;7.540;2022-12-18T00:21:42;22.63;;;21.37;;
15454;SDS011;21057;51.024;7.540;2022-12-18T00:24:09;22.60;;;21.40;;
15454;SDS011;21057;51.024;7.540;2022-12-18T00:26:37;24.93;;;23.43;;
15454;SDS011;21057;51.024;7.540;2022-12-18T00:29:07;23.43;;;22.13;;
15454;SDS011;21057;51.024;7.540;2022-12-18T00:31:36;23.53;;;22.23;;
15454;SDS011;21057;51.024;7.540;2022-12-18T00:34:04;23.30;;;22.00;;
15454;SDS011;21057;51.024;7.540;2022-12-18T00:36:33;22.80;;;21.60;;
15454;SDS011;21057;51.024;7.540;2022-12-18T00:39:03;22.50;;;21.30;;
15454;SDS011;21057;51.024;7.540;2022-12-18T00:41:30;23.23;;;21.73;;
15454;SDS011;21057;51.024;7.540;2022-12-18T00:44:16;22.37;;;21.17;;
15454;SDS011;21057;51.024;7.540;2022-12-18T00:46:43;22.70;;;21.50;;
15454;SDS011;21057;51.024;7.540;2022-12-18T00:49:11;22.73;;;21.53;;
15454;SDS011;21057;51.024;7.540;2022-12-18T00:51:38;23.40;;;22.00;;
15454;SDS011;21057;51.024;7.540;2022-12-18T00:54:06;23.37;;;22.07;;
15454;SDS011;21057;51.024;7.540;2022-12-18T00:56:34;23.30;;;22.00;;
15454;SDS011;21057;51.024;7.540;2022-12-18T00:59:02;22.97;;;21.67;;
15454;SDS011;21057;51.024;7.540;2022-12-18T01:01:29;23.57;;;22.17;;
15454;SDS011;21057;51.024;7.540;2022-12-18T01:03:57;22.87;;;21.67;;
15454;SDS011;21057;51.024;7.540;2022-12-18T01:06:25;22.47;;;21.23;;
15454;SDS011;21057;51.024;7.540;2022-12-18T01:08:51;22.77;;;21.57;;
15454;SDS011;21057;51.024;7.540;2022-12-18T01:11:20;23.07;;;21.37;;
15454;SDS011;21057;51.024;7.540;2022-12-18T01:13:49;23.63;;;21.97;;
15454;SDS011;21057;51.024;7.540;2022-12-18T01:16:17;22.93;;;21.63;;
15454;SDS011;21057;51.024;7.540;2022-12-18T01:18:44;22.33;;;21.03;;
15454;SDS011;21057;51.024;7.540;2022-12-18T01:21:13;22.77;;;21.33;;
15454;SDS011;21057;51.024;7.540;2022-12-18T01:23:41;22.43;;;21.23;;
15454;SDS011;21057;51.024;7.540;2022-12-18T01:26:12;23.17;;;21.60;;
15454;SDS011;21057;51.024;7.540;2022-12-18T01:28:42;22.67;;;21.37;;
15454;SDS011;21057;51.024;7.540;2022-12-18T01:31:13;22.40;;;21.20;;
15454;SDS011;21057;51.024;7.540;2022-12-18T01:33:43;21.73;;;20.53;;
15454;SDS011;21057;51.024;7.540;2022-12-18T01:36:14;21.80;;;20.60;;
15454;SDS011;21057;51.024;7.540;2022-12-18T01:38:43;21.97;;;20.77;;
15454;SDS011;21057;51.024;7.540;2022-12-18T01:41:10;23.67;;;22.27;;
15454;SDS011;21057;51.024;7.540;2022-12-18T01:43:48;24.90;;;22.53;;
15454;SDS011;21057;51.024;7.540;2022-12-18T01:46:19;22.20;;;20.93;;
15454;SDS011;21057;51.024;7.540;2022-12-18T01:48:48;21.53;;;20.37;;
15454;SDS011;21057;51.024;7.540;2022-12-18T01:51:18;22.27;;;21.07;;
15454;SDS011;21057;51.024;7.540;2022-12-18T01:53:45;25.90;;;23.47;;
15454;SDS011;21057;51.024;7.540;2022-12-18T01:56:15;22.63;;;21.33;;
15454;SDS011;21057;51.024;7.540;2022-12-18T01:58:45;23.00;;;21.53;;
15454;SDS011;21057;51.024;7.540;2022-12-18T02:01:19;23.53;;;22.10;;
15454;SDS011;21057;51.024;7.540;2022-12-18T02:03:47;23.20;;;21.90;;
15454;SDS011;21057;51.024;7.540;2022-12-18T02:06:16;23.03;;;21.73;;
15454;SDS011;21057;51.024;7.540;2022-12-18T02:08:53;23.43;;;21.93;;
15454;SDS011;21057;51.024;7.540;2022-12-18T02:11:31;22.97;;;21.77;;
15454;SDS011;21057;51.024;7.540;2022-12-18T02:14:10;23.30;;;21.90;;
15454;SDS011;21057;51.024;7.540;2022-12-18T02:16:44;22.63;;;21.30;;
15454;SDS011;21057;51.024;7.540;2022-12-18T02:19:21;22.37;;;21.17;;
15454;SDS011;21057;51.024;7.540;2022-12-18T02:25:05;24.23;;;22.80;;
15454;SDS011;21057;51.024;7.540;2022-12-18T02:27:43;22.90;;;21.60;;
15454;SDS011;21057;51.024;7.540;2022-12-18T02:30:13;23.10;;;21.73;;
15454;SDS011;21057;51.024;7.540;2022-12-18T02:32:41;23.20;;;21.90;;
15454;SDS011;21057;51.024;7.540;2022-12-18T02:35:11;23.30;;;21.60;;
15454;SDS011;21057;51.024;7.540;2022-12-18T02:37:39;23.13;;;21.73;;
15454;SDS011;21057;51.024;7.540;2022-12-18T02:40:08;22.47;;;21.27;;
15454;SDS011;21057;51.024;7.540;2022-12-18T02:42:36;23.77;;;22.47;;
15454;SDS011;21057;51.024;7.540;2022-12-18T02:45:05;22.23;;;21.03;;
15454;SDS011;21057;51.024;7.540;2022-12-18T02:47:34;23.27;;;21.97;;
15454;SDS011;21057;51.024;7.540;2022-12-18T02:50:06;24.17;;;22.77;;
15454;SDS011;21057;51.024;7.540;2022-12-18T02:52:41;22.47;;;21.27;;
15454;SDS011;21057;51.024;7.540;2022-12-18T02:55:19;22.97;;;21.47;;
15454;SDS011;21057;51.024;7.540;2022-12-18T02:57:56;21.83;;;20.63;;
15454;SDS011;21057;51.024;7.540;2022-12-18T03:00:29;22.17;;;20.97;;
15454;SDS011;21057;51.024;7.540;2022-12-18T03:03:02;23.83;;;22.53;;
15454;SDS011;21057;51.024;7.540;2022-12-18T03:05:33;23.53;;;22.23;;
15454;SDS011;21057;51.024;7.540;2022-12-18T03:08:05;22.23;;;21.03;;
15454;SDS011;21057;51.024;7.540;2022-12-18T03:10:38;22.20;;;21.00;;
15454;SDS011;21057;51.024;7.540;2022-12-18T03:13:12;22.43;;;21.23;;
15454;SDS011;21057;51.024;7.540;2022-12-18T03:15:45;27.00;;;21.83;;
15454;SDS011;21057;51.024;7.540;2022-12-18T03:18:16;23.77;;;22.40;;
15454;SDS011;21057;51.024;7.540;2022-12-18T03:20:46;22.30;;;20.57;;
15454;SDS011;21057;51.024;7.540;2022-12-18T03:23:17;22.83;;;21.63;;
15454;SDS011;21057;51.024;7.540;2022-12-18T03:25:46;22.00;;;20.70;;
15454;SDS011;21057;51.024;7.540;2022-12-18T03:28:16;23.90;;;22.40;;
15454;SDS011;21057;51.024;7.540;2022-12-18T03:30:49;22.63;;;21.03;;
15454;SDS011;21057;51.024;7.540;2022-12-18T03:33:21;22.40;;;21.20;;
15454;SDS011;21057;51.024;7.540;2022-12-18T03:35:52;22.40;;;21.20;;
15454;SDS011;21057;51.024;7.540;2022-12-18T03:38:19;22.80;;;21.50;;
15454;SDS011;21057;51.024;7.540;2022-12-18T03:40:51;21.70;;;20.50;;
15454;SDS011;21057;51.024;7.540;2022-12-18T03:43:27;22.93;;;21.63;;
15454;SDS011;21057;51.024;7.540;2022-12-18T03:46:06;22.93;;;21.73;;
15454;SDS011;21057;51.024;7.540;2022-12-18T03:48:38;23.63;;;22.23;;
15454;SDS011;21057;51.024;7.540;2022-12-18T03:51:11;23.90;;;22.60;;
15454;SDS011;21057;51.024;7.540;2022-12-18T03:53:44;23.90;;;22.27;;
15454;SDS011;21057;51.024;7.540;2022-12-18T03:56:17;24.23;;;22.53;;
15454;SDS011;21057;51.024;7.540;2022-12-18T03:58:46;24.47;;;23.07;;
15454;SDS011;21057;51.024;7.540;2022-12-18T04:01:16;23.53;;;22.13;;
15454;SDS011;21057;51.024;7.540;2022-12-18T04:03:46;22.73;;;21.53;;
15454;SDS011;21057;51.024;7.540;2022-12-18T04:06:15;22.57;;;21.30;;
15454;SDS011;21057;51.024;7.540;2022-12-18T04:08:43;23.80;;;22.50;;
15454;SDS011;21057;51.024;7.540;2022-12-18T04:11:11;25.47;;;23.90;;
15454;SDS011;21057;51.024;7.540;2022-12-18T04:13:38;23.60;;;22.30;;
15454;SDS011;21057;51.024;7.540;2022-12-18T04:16:05;23.13;;;21.87;;
15454;SDS011;21057;51.024;7.540;2022-12-18T04:18:35;25.27;;;23.03;;
15454;SDS011;21057;51.024;7.540;2022-12-18T04:21:02;23.77;;;22.43;;
15454;SDS011;21057;51.024;7.540;2022-12-18T04:23:29;22.20;;;21.00;;
15454;SDS011;21057;51.024;7.540;2022-12-18T04:25:56;23.30;;;22.00;;
15454;SDS011;21057;51.024;7.540;2022-12-18T04:28:23;24.30;;;23.00;;
15454;SDS011;21057;51.024;7.540;2022-12-18T04:30:50;24.77;;;23.17;;
15454;SDS011;21057;51.024;7.540;2022-12-18T04:33:17;23.30;;;22.00;;
15454;SDS011;21057;51.024;7.540;2022-12-18T04:35:45;23.77;;;22.37;;
15454;SDS011;21057;51.024;7.540;2022-12-18T04:38:12;22.53;;;21.33;;
15454;SDS011;21057;51.024;7.540;2022-12-18T04:40:39;22.93;;;21.53;;
15454;SDS011;21057;51.024;7.540;2022-12-18T04:43:06;24.23;;;22.63;;
15454;SDS011;21057;51.024;7.540;2022-12-18T04:45:33;22.97;;;21.67;;
15454;SDS011;21057;51.024;7.540;2022-12-18T04:48:00;23.07;;;21.77;;
15454;SDS011;21057;51.024;7.540;2022-12-18T04:50:28;23.87;;;22.43;;
15454;SDS011;21057;51.024;7.540;2022-12-18T04:52:57;24.00;;;22.53;;
15454;SDS011;21057;51.024;7.540;2022-12-18T04:55:24;23.27;;;21.97;;
15454;SDS011;21057;51.024;7.540;2022-12-18T04:57:51;23.20;;;21.90;;
15454;SDS011;21057;51.024;7.540;2022-12-18T05:00:18;23.50;;;22.20;;
15454;SDS011;21057;51.024;7.540;2022-12-18T05:02:45;23.70;;;22.40;;
15454;SDS011;21057;51.024;7.540;2022-12-18T05:05:12;25.23;;;23.83;;
15454;SDS011;21057;51.024;7.540;2022-12-18T05:07:39;24.70;;;23.20;;
15454;SDS011;21057;51.024;7.540;2022-12-18T05:10:07;25.30;;;23.80;;
15454;SDS011;21057;51.024;7.540;2022-12-18T05:12:34;24.73;;;23.43;;
15454;SDS011;21057;51.024;7.540;2022-12-18T05:15:22;24.80;;;23.30;;
15454;SDS011;21057;51.024;7.540;2022-12-18T05:17:48;23.90;;;22.50;;
15454;SDS011;21057;51.024;7.540;2022-12-18T05:20:15;25.50;;;23.93;;
15454;SDS011;21057;51.024;7.540;2022-12-18T05:22:43;24.37;;;23.07;;
15454;SDS011;21057;51.024;7.540;2022-12-18T05:25:11;24.30;;;22.80;;
15454;SDS011;21057;51.024;7.540;2022-12-18T05:27:38;24.63;;;23.27;;
15454;SDS011;21057;51.024;7.540;2022-12-18T05:30:05;23.83;;;22.53;;
15454;SDS011;21057;51.024;7.540;2022-12-18T05:32:33;23.50;;;22.20;;
15454;SDS011;21057;51.024;7.540;2022-12-18T05:34:59;23.80;;;22.50;;
15454;SDS011;21057;51.024;7.540;2022-12-18T05:37:26;23.10;;;21.80;;
15454;SDS011;21057;51.024;7.540;2022-12-18T05:39:53;23.40;;;22.10;;
15454;SDS011;21057;51.024;7.540;2022-12-18T05:42:22;24.00;;;22.70;;
15454;SDS011;21057;51.024;7.540;2022-12-18T05:44:48;27.77;;;22.87;;
15454;SDS011;21057;51.024;7.540;2022-12-18T05:47:16;24.33;;;22.83;;
15454;SDS011;21057;51.024;7.540;2022-12-18T05:49:43;23.90;;;22.30;;
15454;SDS011;21057;51.024;7.540;2022-12-18T05:52:09;22.83;;;21.60;;
15454;SDS011;21057;51.024;7.540;2022-12-18T05:54:36;23.87;;;22.50;;
15454;SDS011;21057;51.024;7.540;2022-12-18T05:57:04;23.70;;;22.40;;
15454;SDS011;21057;51.024;7.540;2022-12-18T05:59:32;24.67;;;23.23;;
15454;SDS011;21057;51.024;7.540;2022-12-18T06:01:59;24.13;;;22.40;;
15454;SDS011;21057;51.024;7.540;2022-12-18T06:04:26;23.33;;;22.03;;
15454;SDS011;21057;51.024;7.540;2022-12-18T06:06:53;24.17;;;22.67;;
15454;SDS011;21057;51.024;7.540;2022-12-18T06:09:20;23.63;;;22.33;;
15454;SDS011;21057;51.024;7.540;2022-12-18T06:11:47;24.43;;;23.03;;
15454;SDS011;21057;51.024;7.540;2022-12-18T06:14:14;24.93;;;23.53;;
15454;SDS011;21057;51.024;7.540;2022-12-18T06:16:43;23.80;;;22.50;;
15454;SDS011;21057;51.024;7.540;2022-12-18T06:19:12;23.20;;;21.80;;
15454;SDS011;21057;51.024;7.540;2022-12-18T06:21:40;22.87;;;21.67;;
15454;SDS011;21057;51.024;7.540;2022-12-18T06:24:07;23.43;;;21.73;;
15454;SDS011;21057;51.024;7.540;2022-12-18T06:26:36;23.00;;;21.80;;
15454;SDS011;21057;51.024;7.540;2022-12-18T06:29:04;23.47;;;21.53;;
15454;SDS011;21057;51.024;7.540;2022-12-18T06:31:31;22.97;;;21.67;;
15454;SDS011;21057;51.024;7.540;2022-12-18T06:33:59;24.23;;;22.93;;
15454;SDS011;21057;51.024;7.540;2022-12-18T06:36:28;22.90;;;21.60;;
15454;SDS011;21057;51.024;7.540;2022-12-18T06:38:56;22.83;;;21.53;;
15454;SDS011;21057;51.024;7.540;2022-12-18T06:41:23;25.33;;;23.27;;
15454;SDS011;21057;51.024;7.540;2022-12-18T06:43:53;22.37;;;21.17;;
15454;SDS011;21057;51.024;7.540;2022-12-18T06:46:19;23.67;;;21.97;;
15454;SDS011;21057;51.024;7.540;2022-12-18T06:48:47;23.00;;;21.47;;
15454;SDS011;21057;51.024;7.540;2022-12-18T06:51:17;28.13;;;22.90;;
15454;SDS011;21057;51.024;7.540;2022-12-18T06:53:45;23.40;;;21.97;;
15454;SDS011;21057;51.024;7.540;2022-12-18T06:56:12;24.60;;;22.67;;
15454;SDS011;21057;51.024;7.540;2022-12-18T06:58:39;22.47;;;21.27;;
15454;SDS011;21057;51.024;7.540;2022-12-18T07:01:07;22.90;;;21.70;;
15454;SDS011;21057;51.024;7.540;2022-12-18T07:03:35;23.77;;;22.10;;
15454;SDS011;21057;51.024;7.540;2022-12-18T07:06:02;22.83;;;21.63;;
15454;SDS011;21057;51.024;7.540;2022-12-18T07:08:30;24.53;;;22.20;;
15454;SDS011;21057;51.024;7.540;2022-12-18T07:10:58;22.47;;;21.20;;
15454;SDS011;21057;51.024;7.540;2022-12-18T07:13:25;22.93;;;21.57;;
15454;SDS011;21057;51.024;7.540;2022-12-18T07:15:52;22.70;;;20.93;;
15454;SDS011;21057;51.024;7.540;2022-12-18T07:18:18;23.70;;;22.27;;
15454;SDS011;21057;51.024;7.540;2022-12-18T07:20:45;22.63;;;21.20;;
15454;SDS011;21057;51.024;7.540;2022-12-18T07:23:12;23.00;;;21.30;;
15454;SDS011;21057;51.024;7.540;2022-12-18T07:25:40;22.90;;;21.60;;
15454;SDS011;21057;51.024;7.540;2022-12-18T07:28:07;22.70;;;21.30;;
15454;SDS011;21057;51.024;7.540;2022-12-18T07:30:36;22.27;;;21.07;;
15454;SDS011;21057;51.024;7.540;2022-12-18T07:33:03;21.77;;;20.67;;
15454;SDS011;21057;51.024;7.540;2022-12-18T07:35:30;20.73;;;19.63;;
15454;SDS011;21057;51.024;7.540;2022-12-18T07:37:58;21.13;;;19.93;;
15454;SDS011;21057;51.024;7.540;2022-12-18T07:40:25;24.33;;;22.17;;
15454;SDS011;21057;51.024;7.540;2022-12-18T07:42:53;22.23;;;21.03;;
15454;SDS011;21057;51.024;7.540;2022-12-18T07:45:20;21.27;;;20.17;;
15454;SDS011;21057;51.024;7.540;2022-12-18T07:47:47;22.23;;;21.03;;
15454;SDS011;21057;51.024;7.540;2022-12-18T07:50:14;21.27;;;20.03;;
15454;SDS011;21057;51.024;7.540;2022-12-18T07:52:41;19.90;;;18.90;;
15454;SDS011;21057;51.024;7.540;2022-12-18T07:55:08;20.67;;;19.57;;
15454;SDS011;21057;51.024;7.540;2022-12-18T07:57:35;23.33;;;21.50;;
15454;SDS011;21057;51.024;7.540;2022-12-18T08:00:04;23.07;;;21.63;;
15454;SDS011;21057;51.024;7.540;2022-12-18T08:02:32;21.47;;;20.30;;
15454;SDS011;21057;51.024;7.540;2022-12-18T08:04:58;22.33;;;20.93;;
15454;SDS011;21057;51.024;7.540;2022-12-18T08:07:25;21.57;;;20.30;;
15454;SDS011;21057;51.024;7.540;2022-12-18T08:09:52;21.93;;;20.73;;
15454;SDS011;21057;51.024;7.540;2022-12-18T08:12:19;21.47;;;20.27;;
15454;SDS011;21057;51.024;7.540;2022-12-18T08:14:46;21.90;;;20.60;;
15454;SDS011;21057;51.024;7.540;2022-12-18T08:17:14;21.63;;;20.13;;
15454;SDS011;21057;51.024;7.540;2022-12-18T08:19:41;20.23;;;19.13;;
15454;SDS011;21057;51.024;7.540;2022-12-18T08:22:08;21.50;;;20.17;;
15454;SDS011;21057;51.024;7.540;2022-12-18T08:24:35;20.87;;;19.63;;
15454;SDS011;21057;51.024;7.540;2022-12-18T08:27:02;23.27;;;21.93;;
15454;SDS011;21057;51.024;7.540;2022-12-18T08:29:29;20.93;;;19.63;;
15454;SDS011;21057;51.024;7.540;2022-12-18T08:31:57;23.53;;;21.93;;
15454;SDS011;21057;51.024;7.540;2022-12-18T08:34:25;21.53;;;20.33;;
15454;SDS011;21057;51.024;7.540;2022-12-18T08:36:52;21.23;;;20.03;;
15454;SDS011;21057;51.024;7.540;2022-12-18T08:39:19;20.90;;;19.70;;
15454;SDS011;21057;51.024;7.540;2022-12-18T08:41:46;20.77;;;18.83;;
15454;SDS011;21057;51.024;7.540;2022-12-18T08:44:33;21.60;;;19.90;;
15454;SDS011;21057;51.024;7.540;2022-12-18T08:47:02;18.77;;;17.77;;
15454;SDS011;21057;51.024;7.540;2022-12-18T08:49:30;21.17;;;19.80;;
15454;SDS011;21057;51.024;7.540;2022-12-18T08:51:58;19.27;;;18.23;;
15454;SDS011;21057;51.024;7.540;2022-12-18T08:54:30;20.20;;;18.80;;
15454;SDS011;21057;51.024;7.540;2022-12-18T08:56:59;20.27;;;18.97;;
15454;SDS011;21057;51.024;7.540;2022-12-18T08:59:26;20.03;;;18.47;;
15454;SDS011;21057;51.024;7.540;2022-12-18T09:01:53;20.33;;;19.27;;
15454;SDS011;21057;51.024;7.540;2022-12-18T09:04:21;19.20;;;18.20;;
15454;SDS011;21057;51.024;7.540;2022-12-18T09:06:50;20.63;;;19.33;;
15454;SDS011;21057;51.024;7.540;2022-12-18T09:09:17;19.77;;;18.50;;
15454;SDS011;21057;51.024;7.540;2022-12-18T09:11:43;19.97;;;18.67;;
15454;SDS011;21057;51.024;7.540;2022-12-18T09:14:10;22.13;;;20.60;;
15454;SDS011;21057;51.024;7.540;2022-12-18T09:16:37;19.23;;;18.23;;
15454;SDS011;21057;51.024;7.540;2022-12-18T09:19:04;18.70;;;17.70;;
15454;SDS011;21057;51.024;7.540;2022-12-18T09:21:32;21.17;;;19.77;;
15454;SDS011;21057;51.024;7.540;2022-12-18T09:24:02;20.73;;;19.53;;
15454;SDS011;21057;51.024;7.540;2022-12-18T09:26:29;20.30;;;19.20;;
15454;SDS011;21057;51.024;7.540;2022-12-18T09:28:56;21.17;;;19.93;;
15454;SDS011;21057;51.024;7.540;2022-12-18T09:31:23;19.77;;;18.67;;
15454;SDS011;21057;51.024;7.540;2022-12-18T09:33:50;20.10;;;18.80;;
15454;SDS011;21057;51.024;7.540;2022-12-18T09:36:17;19.50;;;18.13;;
15454;SDS011;21057;51.024;7.540;2022-12-18T09:38:44;20.70;;;19.13;;
15454;SDS011;21057;51.024;7.540;2022-12-18T09:41:23;19.37;;;18.27;;
15454;SDS011;21057;51.024;7.540;2022-12-18T09:44:13;20.30;;;19.07;;
15454;SDS011;21057;51.024;7.540;2022-12-18T09:46:49;20.33;;;19.03;;
15454;SDS011;21057;51.024;7.540;2022-12-18T09:49:21;20.53;;;19.17;;
15454;SDS011;21057;51.024;7.540;2022-12-18T09:51:52;19.50;;;18.30;;
15454;SDS011;21057;51.024;7.540;2022-12-18T09:54:26;19.33;;;18.13;;
15454;SDS011;21057;51.024;7.540;2022-12-18T09:57:01;18.83;;;17.83;;
15454;SDS011;21057;51.024;7.540;2022-12-18T09:59:29;18.73;;;17.73;;
15454;SDS011;21057;51.024;7.540;2022-12-18T10:02:00;20.43;;;19.23;;
15454;SDS011;21057;51.024;7.540;2022-12-18T10:04:42;20.07;;;18.73;;
15454;SDS011;21057;51.024;7.540;2022-12-18T10:07:12;20.77;;;19.60;;
15454;SDS011;21057;51.024;7.540;2022-12-18T10:09:46;20.87;;;19.40;;
15454;SDS011;21057;51.024;7.540;2022-12-18T10:12:21;19.80;;;18.70;;
15454;SDS011;21057;51.024;7.540;2022-12-18T10:14:54;20.73;;;19.43;;
15454;SDS011;21057;51.024;7.540;2022-12-18T10:17:26;18.53;;;17.43;;
15454;SDS011;21057;51.024;7.540;2022-12-18T10:20:02;19.37;;;18.17;;
15454;SDS011;21057;51.024;7.540;2022-12-18T10:22:38;20.17;;;18.67;;
15454;SDS011;21057;51.024;7.540;2022-12-18T10:25:16;19.73;;;18.40;;
15454;SDS011;21057;51.024;7.540;2022-12-18T10:27:49;21.27;;;19.97;;
15454;SDS011;21057;51.024;7.540;2022-12-18T10:30:21;20.03;;;18.63;;
15454;SDS011;21057;51.024;7.540;2022-12-18T10:32:49;18.87;;;17.73;;
15454;SDS011;21057;51.024;7.540;2022-12-18T10:35:18;18.87;;;17.67;;
15454;SDS011;21057;51.024;7.540;2022-12-18T10:37:59;18.10;;;17.10;;
15454;SDS011;21057;51.024;7.540;2022-12-18T10:40:27;19.73;;;18.63;;
15454;SDS011;21057;51.024;7.540;2022-12-18T10:43:10;18.43;;;17.30;;
15454;SDS011;21057;51.024;7.540;2022-12-18T10:45:39;20.50;;;19.03;;
15454;SDS011;21057;51.024;7.540;2022-12-18T10:48:17;19.23;;;17.83;;
15454;SDS011;21057;51.024;7.540;2022-12-18T10:50:47;18.73;;;17.63;;
15454;SDS011;21057;51.024;7.540;2022-12-18T10:53:18;19.00;;;17.70;;
15454;SDS011;21057;51.024;7.540;2022-12-18T10:55:47;20.57;;;19.07;;
15454;SDS011;21057;51.024;7.540;2022-12-18T10:58:19;18.93;;;17.67;;
15454;SDS011;21057;51.024;7.540;2022-12-18T11:01:06;20.23;;;19.03;;
15454;SDS011;21057;51.024;7.540;2022-12-18T11:03:36;19.17;;;17.93;;
15454;SDS011;21057;51.024;7.540;2022-12-18T11:06:06;20.03;;;18.80;;
15454;SDS011;21057;51.024;7.540;2022-12-18T11:08:35;20.80;;;19.20;;
15454;SDS011;21057;51.024;7.540;2022-12-18T11:11:02;20.57;;;19.13;;
15454;SDS011;21057;51.024;7.540;2022-12-18T11:13:42;18.93;;;17.73;;
15454;SDS011;21057;51.024;7.540;2022-12-18T11:16:24;19.53;;;18.33;;
15454;SDS011;21057;51.024;7.540;2022-12-18T11:18:51;20.37;;;18.87;;
15454;SDS011;21057;51.024;7.540;2022-12-18T11:21:18;19.63;;;18.27;;
15454;SDS011;21057;51.024;7.540;2022-12-18T11:23:46;18.93;;;17.83;;
15454;SDS011;21057;51.024;7.540;2022-12-18T11:26:16;19.30;;;18.20;;
15454;SDS011;21057;51.024;7.540;2022-12-18T11:28:45;20.73;;;19.10;;
15454;SDS011;21057;51.024;7.540;2022-12-18T11:31:21;19.67;;;18.40;;
15454;SDS011;21057;51.024;7.540;2022-12-18T11:33:52;19.87;;;18.30;;
15454;SDS011;21057;51.024;7.540;2022-12-18T11:36:33;18.77;;;17.40;;
15454;SDS011;21057;51.024;7.540;2022-12-18T11:39:12;19.27;;;18.10;;
15454;SDS011;21057;51.024;7.540;2022-12-18T11:41:47;18.33;;;17.23;;
15454;SDS011;21057;51.024;7.540;2022-12-18T11:44:40;19.40;;;18.30;;
15454;SDS011;21057;51.024;7.540;2022-12-18T11:47:13;19.77;;;18.33;;
15454;SDS011;21057;51.024;7.540;2022-12-18T11:49:47;18.13;;;17.00;;
15454;SDS011;21057;51.024;7.540;2022-12-18T11:52:16;20.03;;;18.60;;
15454;SDS011;21057;51.024;7.540;2022-12-18T11:54:47;20.50;;;19.10;;
15454;SDS011;21057;51.024;7.540;2022-12-18T11:57:19;19.20;;;18.10;;
15454;SDS011;21057;51.024;7.540;2022-12-18T12:00:01;19.40;;;18.07;;
15454;SDS011;21057;51.024;7.540;2022-12-18T12:02:41;20.37;;;18.97;;
15454;SDS011;21057;51.024;7.540;2022-12-18T12:05:29;20.57;;;18.93;;
15454;SDS011;21057;51.024;7.540;2022-12-18T12:08:18;20.20;;;18.73;;
15454;SDS011;21057;51.024;7.540;2022-12-18T12:10:56;20.20;;;18.57;;
15454;SDS011;21057;51.024;7.540;2022-12-18T12:13:35;20.87;;;19.27;;
15454;SDS011;21057;51.024;7.540;2022-12-18T12:16:12;19.53;;;18.30;;
15454;SDS011;21057;51.024;7.540;2022-12-18T12:18:47;21.47;;;20.07;;
15454;SDS011;21057;51.024;7.540;2022-12-18T12:21:33;19.93;;;18.73;;
15454;SDS011;21057;51.024;7.540;2022-12-18T12:24:06;21.03;;;19.60;;
15454;SDS011;21057;51.024;7.540;2022-12-18T12:26:46;21.83;;;20.23;;
15454;SDS011;21057;51.024;7.540;2022-12-18T12:29:23;22.07;;;20.27;;
15454;SDS011;21057;51.024;7.540;2022-12-18T12:32:15;19.90;;;18.67;;
15454;SDS011;21057;51.024;7.540;2022-12-18T12:34:52;20.83;;;19.43;;
15454;SDS011;21057;51.024;7.540;2022-12-18T12:37:32;20.77;;;19.20;;
15454;SDS011;21057;51.024;7.540;2022-12-18T12:40:09;21.00;;;19.60;;
15454;SDS011;21057;51.024;7.540;2022-12-18T12:42:41;22.20;;;20.37;;
15454;SDS011;21057;51.024;7.540;2022-12-18T12:45:31;22.30;;;20.83;;
15454;SDS011;21057;51.024;7.540;2022-12-18T12:48:04;21.70;;;19.90;;
15454;SDS011;21057;51.024;7.540;2022-12-18T12:50:36;21.83;;;20.53;;
15454;SDS011;21057;51.024;7.540;2022-12-18T12:53:06;20.50;;;19.10;;
15454;SDS011;21057;51.024;7.540;2022-12-18T12:55:36;23.00;;;20.97;;
15454;SDS011;21057;51.024;7.540;2022-12-18T12:58:08;20.10;;;18.63;;
15454;SDS011;21057;51.024;7.540;2022-12-18T13:00:44;21.23;;;19.90;;
15454;SDS011;21057;51.024;7.540;2022-12-18T13:03:27;21.10;;;19.70;;
15454;SDS011;21057;51.024;7.540;2022-12-18T13:06:07;21.80;;;20.33;;
15454;SDS011;21057;51.024;7.540;2022-12-18T13:08:52;21.33;;;19.93;;
15454;SDS011;21057;51.024;7.540;2022-12-18T13:11:30;21.30;;;19.70;;
15454;SDS011;21057;51.024;7.540;2022-12-18T13:14:20;22.70;;;21.00;;
15454;SDS011;21057;51.024;7.540;2022-12-18T13:16:50;20.63;;;19.33;;
15454;SDS011;21057;51.024;7.540;2022-12-18T13:19:23;21.57;;;19.97;;
15454;SDS011;21057;51.024;7.540;2022-12-18T13:21:53;21.77;;;20.27;;
15454;SDS011;21057;51.024;7.540;2022-12-18T13:24:23;22.00;;;20.40;;
15454;SDS011;21057;51.024;7.540;2022-12-18T13:26:52;22.70;;;21.10;;
15454;SDS011;21057;51.024;7.540;2022-12-18T13:38:18;22.07;;;20.57;;
15454;SDS011;21057;51.024;7.540;2022-12-18T13:40:53;21.57;;;20.03;;
15454;SDS011;21057;51.024;7.540;2022-12-18T13:43:28;22.03;;;19.73;;
15454;SDS011;21057;51.024;7.540;2022-12-18T13:45:59;21.83;;;20.43;;
15454;SDS011;21057;51.024;7.540;2022-12-18T13:48:29;21.03;;;19.43;;
15454;SDS011;21057;51.024;7.540;2022-12-18T13:50:59;19.90;;;18.70;;
15454;SDS011;21057;51.024;7.540;2022-12-18T13:53:31;20.00;;;18.80;;
15454;SDS011;21057;51.024;7.540;2022-12-18T13:56:02;20.20;;;18.60;;
15454;SDS011;21057;51.024;7.540;2022-12-18T13:58:30;20.27;;;18.97;;
15454;SDS011;21057;51.024;7.540;2022-12-18T14:00:57;20.00;;;18.63;;
15454;SDS011;21057;51.024;7.540;2022-12-18T14:03:27;21.03;;;19.73;;
15454;SDS011;21057;51.024;7.540;2022-12-18T14:05:56;20.47;;;19.13;;
15454;SDS011;21057;51.024;7.540;2022-12-18T14:08:29;21.13;;;19.73;;
15454;SDS011;21057;51.024;7.540;2022-12-18T14:11:01;23.57;;;21.37;;
15454;SDS011;21057;51.024;7.540;2022-12-18T14:13:32;22.13;;;20.63;;
15454;SDS011;21057;51.024;7.540;2022-12-18T14:16:03;23.00;;;21.13;;
15454;SDS011;21057;51.024;7.540;2022-12-18T14:18:34;20.60;;;19.20;;
15454;SDS011;21057;51.024;7.540;2022-12-18T14:21:15;20.63;;;19.23;;
15454;SDS011;21057;51.024;7.540;2022-12-18T14:23:47;21.27;;;19.87;;
15454;SDS011;21057;51.024;7.540;2022-12-18T14:26:24;23.50;;;21.63;;
15454;SDS011;21057;51.024;7.540;2022-12-18T14:28:54;20.97;;;19.67;;
15454;SDS011;21057;51.024;7.540;2022-12-18T14:31:21;22.80;;;20.67;;
15454;SDS011;21057;51.024;7.540;2022-12-18T14:33:49;22.53;;;20.73;;
15454;SDS011;21057;51.024;7.540;2022-12-18T14:36:17;20.80;;;19.40;;
15454;SDS011;21057;51.024;7.540;2022-12-18T14:38:49;20.90;;;19.50;;
15454;SDS011;21057;51.024;7.540;2022-12-18T14:41:19;20.97;;;19.67;;
15454;SDS011;21057;51.024;7.540;2022-12-18T14:43:48;21.93;;;20.33;;
15454;SDS011;21057;51.024;7.540;2022-12-18T14:46:26;22.97;;;21.17;;
15454;SDS011;21057;51.024;7.540;2022-12-18T14:48:55;22.37;;;20.67;;
15454;SDS011;21057;51.024;7.540;2022-12-18T14:51:23;22.30;;;20.63;;
15454;SDS011;21057;51.024;7.540;2022-12-18T14:53:54;22.73;;;21.20;;